createdAt,value
2019-05-22T00:06:13.892Z,0.0
2019-05-22T00:18:37.358Z,0.0
2019-05-22T00:31:20.438Z,0.0
2019-05-22T00:43:02.967Z,0.0
2019-05-22T00:53:34.139Z,0.0
2019-05-22T01:04:50.753Z,0.0
2019-05-22T01:16:03.909Z,0.0
2019-05-22T01:26:49.806Z,0.0
2019-05-22T01:37:03.426Z,0.0
2019-05-22T01:47:17.809Z,0.0
2019-05-22T01:57:31.976Z,0.0
2019-05-22T02:07:43.666Z,0.0
2019-05-22T02:17:57.297Z,0.0
2019-05-22T02:28:09.100Z,0.0
2019-05-22T02:38:54.069Z,0.0
2019-05-22T02:49:06.035Z,0.0
2019-05-22T02:59:51.309Z,4.0
2019-05-22T03:10:45.501Z,8.0
2019-05-22T03:21:31.516Z,12.0
2019-05-22T03:32:17.159Z,28.0
2019-05-22T03:43:13.797Z,80.0
2019-05-22T03:54:14.257Z,140.0
2019-05-22T04:04:28.283Z,232.0
2019-05-22T04:15:35.721Z,424.0
2019-05-22T04:26:06.189Z,796.0
2019-05-22T04:37:28.966Z,848.0
2019-05-22T04:48:05.320Z,1240.0
2019-05-22T04:59:13.995Z,1068.0
2019-05-22T05:09:27.758Z,980.0
2019-05-22T05:19:41.644Z,912.0
2019-05-22T05:30:11.290Z,1028.0
2019-05-22T05:41:05.374Z,956.0
2019-05-22T05:51:18.717Z,1032.0
2019-05-22T06:02:02.683Z,1144.0
2019-05-22T06:12:17.268Z,1752.0
2019-05-22T06:23:10.471Z,2060.0
2019-05-22T06:34:33.437Z,1972.0
2019-05-22T06:45:25.180Z,2432.0
2019-05-22T06:55:43.863Z,4744.0
2019-05-22T07:06:24.906Z,6996.0
2019-05-22T07:17:55.584Z,4736.0
2019-05-22T07:28:43.015Z,4328.0
2019-05-22T07:39:28.958Z,4128.0
2019-05-22T07:49:42.771Z,5444.0
2019-05-22T07:59:54.434Z,4824.0
2019-05-22T08:10:39.595Z,4820.0
2019-05-22T08:20:50.950Z,5088.0
2019-05-22T08:31:05.452Z,5180.0
2019-05-22T08:41:20.213Z,4676.0
2019-05-22T08:51:33.885Z,6368.0
2019-05-22T09:01:48.033Z,7412.0
2019-05-22T09:12:02.747Z,11132.0
2019-05-22T09:22:17.457Z,11556.0
2019-05-22T09:32:28.997Z,45856.0
2019-05-22T09:43:16.796Z,15296.0
2019-05-22T09:54:02.277Z,47584.0
2019-05-22T10:04:47.661Z,21024.0
2019-05-22T10:15:03.496Z,28160.0
2019-05-22T10:25:16.157Z,31904.0
2019-05-22T10:35:27.383Z,14816.0
2019-05-22T10:45:41.260Z,13352.0
2019-05-22T10:55:55.151Z,13644.0
2019-05-22T11:06:08.124Z,56000.0
2019-05-22T11:16:36.028Z,54976.0
2019-05-22T11:27:14.185Z,26560.0
2019-05-22T11:37:48.914Z,53664.0
2019-05-22T11:48:01.431Z,56224.0
2019-05-22T11:58:14.907Z,27840.0
2019-05-22T12:08:29.476Z,58240.0
2019-05-22T12:19:17.019Z,53952.0
2019-05-22T12:30:03.058Z,57888.0
2019-05-22T12:40:16.210Z,54080.0
2019-05-22T12:50:30.614Z,48384.0
2019-05-22T13:00:43.588Z,47456.0
2019-05-22T13:11:09.913Z,50208.0
2019-05-22T13:22:36.496Z,9356.0
2019-05-22T13:32:51.167Z,14752.0
2019-05-22T13:43:05.340Z,16448.0
2019-05-22T13:53:18.960Z,35488.0
2019-05-22T14:03:33.899Z,28256.0
2019-05-22T14:13:47.975Z,8868.0
2019-05-22T14:24:33.180Z,9340.0
2019-05-22T14:34:47.857Z,10164.0
2019-05-22T14:45:33.161Z,11136.0
2019-05-22T14:55:44.710Z,9696.0
2019-05-22T15:05:56.890Z,11116.0
2019-05-22T15:16:11.557Z,8852.0
2019-05-22T15:26:25.505Z,8892.0
2019-05-22T15:36:39.130Z,9256.0
2019-05-22T15:46:53.098Z,8276.0
2019-05-22T15:57:38.085Z,9328.0
2019-05-22T16:08:24.948Z,6528.0
2019-05-22T16:18:38.439Z,8484.0
2019-05-22T16:29:15.570Z,6620.0
2019-05-22T16:39:29.102Z,5792.0
2019-05-22T16:49:43.088Z,6228.0
2019-05-22T16:59:54.920Z,6828.0
2019-05-22T17:10:06.678Z,4236.0
2019-05-22T17:20:54.237Z,5768.0
2019-05-22T17:31:08.067Z,4292.0
2019-05-22T17:41:58.228Z,4036.0
2019-05-22T17:52:52.638Z,3620.0
2019-05-22T18:06:19.122Z,2924.0
2019-05-22T18:17:31.686Z,2444.0
2019-05-22T19:40:03.707Z,60.0
2019-05-22T19:51:31.807Z,16.0
2019-05-22T20:01:45.542Z,4.0
2019-05-22T20:24:49.566Z,0.0
2019-05-22T21:03:09.078Z,0.0
2019-05-22T21:14:46.361Z,0.0
2019-05-22T21:26:17.496Z,0.0
2019-05-22T21:37:28.102Z,0.0
2019-05-22T21:48:01.799Z,0.0
2019-05-22T21:58:57.058Z,0.0
2019-05-22T22:11:08.425Z,0.0
2019-05-22T22:23:22.497Z,0.0
2019-05-22T22:35:25.745Z,0.0
2019-05-22T22:45:39.383Z,0.0
2019-05-22T22:57:53.923Z,0.0
2019-05-22T23:09:56.370Z,0.0
2019-05-22T23:21:09.448Z,0.0
2019-05-22T23:32:05.209Z,0.0
2019-05-22T23:43:15.660Z,0.0
2019-05-22T23:54:13.220Z,0.0
